createdAt,value
2023-02-16T00:01:24.137Z,31.33
2023-02-16T00:03:52.577Z,35.30
2023-02-16T00:06:20.903Z,33.90
2023-02-16T00:08:49.825Z,32.78
2023-02-16T00:11:38.996Z,32.90
2023-02-16T00:14:09.148Z,30.17
2023-02-16T00:16:37.428Z,31.67
2023-02-16T00:19:14.840Z,32.47
2023-02-16T00:21:43.051Z,29.67
2023-02-16T00:24:11.581Z,29.23
2023-02-16T00:26:41.728Z,30.67
2023-02-16T00:29:12.825Z,29.02
2023-02-16T00:31:41.992Z,28.23
2023-02-16T00:34:24.584Z,28.40
2023-02-16T00:36:54.915Z,29.00
2023-02-16T00:39:25.121Z,29.40
2023-02-16T00:41:56.155Z,30.48
2023-02-16T00:44:28.360Z,28.20
2023-02-16T00:46:56.621Z,28.05
2023-02-16T00:49:24.832Z,29.58
2023-02-16T00:51:53.074Z,27.02
2023-02-16T00:54:21.273Z,27.58
2023-02-16T00:56:49.841Z,26.35
2023-02-16T00:59:21.521Z,28.38
2023-02-16T01:01:49.896Z,25.52
2023-02-16T01:04:21.043Z,27.23
2023-02-16T01:07:06.458Z,26.45
2023-02-16T01:09:52.198Z,25.80
2023-02-16T01:12:21.012Z,25.33
2023-02-16T01:14:52.704Z,25.83
2023-02-16T01:17:20.956Z,25.65
2023-02-16T01:19:49.109Z,25.08
2023-02-16T01:22:18.353Z,24.83
2023-02-16T01:24:46.560Z,24.85
2023-02-16T01:27:15.304Z,23.95
2023-02-16T01:29:46.484Z,25.33
2023-02-16T01:32:17.837Z,25.15
2023-02-16T01:34:46.199Z,24.23
2023-02-16T01:37:16.040Z,23.05
2023-02-16T01:39:45.321Z,23.15
2023-02-16T01:42:21.117Z,23.63
2023-02-16T01:44:50.733Z,23.42
2023-02-16T01:47:27.849Z,22.38
2023-02-16T01:49:56.047Z,23.63
2023-02-16T01:52:28.616Z,24.60
2023-02-16T01:54:58.543Z,22.52
2023-02-16T01:57:31.568Z,22.38
2023-02-16T02:00:07.531Z,23.45
2023-02-16T02:02:44.878Z,21.98
2023-02-16T02:05:36.922Z,23.77
2023-02-16T02:08:16.488Z,23.13
2023-02-16T02:10:49.723Z,24.45
2023-02-16T02:13:20.919Z,27.42
2023-02-16T02:15:49.225Z,30.67
2023-02-16T02:18:18.885Z,27.52
2023-02-16T02:21:11.684Z,29.00
2023-02-16T02:23:47.172Z,30.75
2023-02-16T02:27:04.857Z,32.90
2023-02-16T02:30:03.216Z,33.88
2023-02-16T02:32:37.321Z,32.00
2023-02-16T02:35:13.635Z,40.85
2023-02-16T02:37:48.329Z,36.28
2023-02-16T02:40:20.457Z,33.05
2023-02-16T02:42:54.634Z,32.97
2023-02-16T02:45:24.275Z,34.70
2023-02-16T02:47:52.558Z,34.78
2023-02-16T02:50:33.226Z,32.13
2023-02-16T02:53:03.420Z,33.42
2023-02-16T02:55:48.870Z,33.40
2023-02-16T02:58:36.397Z,36.30
2023-02-16T03:01:05.210Z,34.72
2023-02-16T03:03:35.332Z,31.88
2023-02-16T03:06:06.323Z,33.30
2023-02-16T03:08:36.199Z,36.20
2023-02-16T03:11:23.847Z,34.00
2023-02-16T03:13:56.758Z,34.30
2023-02-16T03:16:26.616Z,32.78
2023-02-16T03:19:11.975Z,31.73
2023-02-16T03:21:57.755Z,35.38
2023-02-16T03:24:44.782Z,34.38
2023-02-16T03:27:30.530Z,35.90
2023-02-16T03:30:00.127Z,34.50
2023-02-16T03:32:28.312Z,32.38
2023-02-16T03:34:56.531Z,29.67
2023-02-16T03:37:24.673Z,34.38
2023-02-16T03:40:10.258Z,33.63
2023-02-16T03:42:38.537Z,32.80
2023-02-16T03:45:09.193Z,32.58
2023-02-16T03:47:37.468Z,30.35
2023-02-16T03:50:06.258Z,31.02
2023-02-16T03:52:34.470Z,31.48
2023-02-16T03:55:02.586Z,31.88
2023-02-16T03:57:30.772Z,31.40
2023-02-16T03:59:59.483Z,29.55
2023-02-16T04:02:29.392Z,28.58
2023-02-16T04:04:58.383Z,27.30
2023-02-16T04:07:26.562Z,32.78
2023-02-16T04:09:54.829Z,29.80
2023-02-16T04:12:37.807Z,29.15
2023-02-16T04:15:07.518Z,29.88
2023-02-16T04:17:37.267Z,28.83
2023-02-16T04:20:06.288Z,31.00
2023-02-16T04:22:34.534Z,27.65
2023-02-16T04:25:02.720Z,28.80
2023-02-16T04:27:30.944Z,29.63
2023-02-16T04:29:59.142Z,32.85
2023-02-16T04:32:27.479Z,27.88
2023-02-16T04:34:57.146Z,28.48
2023-02-16T04:37:25.318Z,27.25
2023-02-16T04:39:53.547Z,28.27
2023-02-16T04:42:21.745Z,27.50
2023-02-16T04:44:50.022Z,26.67
2023-02-16T04:47:18.117Z,25.55
2023-02-16T04:49:47.554Z,25.73
2023-02-16T04:52:18.762Z,26.85
2023-02-16T04:54:47.063Z,23.65
2023-02-16T04:57:15.673Z,29.08
2023-02-16T04:59:43.879Z,25.92
2023-02-16T05:02:12.233Z,26.77
2023-02-16T05:04:42.061Z,30.73
2023-02-16T05:07:10.292Z,25.83
2023-02-16T05:09:39.849Z,26.45
2023-02-16T05:12:25.698Z,27.58
2023-02-16T05:14:53.901Z,23.58
2023-02-16T05:17:23.233Z,26.70
2023-02-16T05:19:52.460Z,24.45
2023-02-16T05:22:20.721Z,27.30
2023-02-16T05:24:50.409Z,23.73
2023-02-16T05:27:19.321Z,26.33
2023-02-16T05:29:47.548Z,22.35
2023-02-16T05:32:16.188Z,26.88
2023-02-16T05:34:45.688Z,23.08
2023-02-16T05:37:14.081Z,22.05
2023-02-16T05:39:42.259Z,23.17
2023-02-16T05:42:11.872Z,22.83
2023-02-16T05:44:40.047Z,22.50
2023-02-16T05:47:08.212Z,23.17
2023-02-16T05:49:36.408Z,20.90
2023-02-16T05:52:04.634Z,22.77
2023-02-16T05:54:32.961Z,22.25
2023-02-16T05:57:01.180Z,21.38
2023-02-16T05:59:30.789Z,21.42
2023-02-16T06:01:58.960Z,20.60
2023-02-16T06:04:28.742Z,21.95
2023-02-16T06:06:56.940Z,24.52
2023-02-16T06:09:25.195Z,18.98
2023-02-16T06:11:53.839Z,20.25
2023-02-16T06:14:22.124Z,21.17
2023-02-16T06:16:52.701Z,22.88
2023-02-16T06:19:21.262Z,20.30
2023-02-16T06:21:49.844Z,19.15
2023-02-16T06:24:18.099Z,19.67
2023-02-16T06:26:46.325Z,19.60
2023-02-16T06:29:14.715Z,21.20
2023-02-16T06:31:43.041Z,18.85
2023-02-16T06:34:12.696Z,21.65
2023-02-16T06:36:42.588Z,19.35
2023-02-16T06:39:11.090Z,24.88
2023-02-16T06:41:40.624Z,22.90
2023-02-16T06:44:09.812Z,24.90
2023-02-16T06:46:38.085Z,23.10
2023-02-16T06:49:06.383Z,21.05
2023-02-16T06:51:35.995Z,40.58
2023-02-16T06:54:04.532Z,36.20
2023-02-16T06:56:33.190Z,46.80
2023-02-16T06:59:01.677Z,43.53
2023-02-16T07:01:30.321Z,51.92
2023-02-16T07:03:58.699Z,53.00
2023-02-16T07:06:28.526Z,56.70
2023-02-16T07:08:58.127Z,47.40
2023-02-16T07:11:26.385Z,54.65
2023-02-16T07:13:54.648Z,49.78
2023-02-16T07:16:22.886Z,56.92
2023-02-16T07:18:51.486Z,52.85
2023-02-16T07:21:19.661Z,54.17
2023-02-16T07:23:47.814Z,56.10
2023-02-16T07:26:17.368Z,50.60
2023-02-16T07:28:45.564Z,44.80
2023-02-16T07:31:14.934Z,47.20
2023-02-16T07:33:43.055Z,46.25
2023-02-16T07:36:11.560Z,44.05
2023-02-16T07:38:42.018Z,45.38
2023-02-16T07:41:10.979Z,43.63
2023-02-16T07:43:42.973Z,46.80
2023-02-16T07:46:11.574Z,42.78
2023-02-16T07:48:39.805Z,39.42
2023-02-16T07:51:08.232Z,44.78
2023-02-16T07:53:36.490Z,39.92
2023-02-16T07:56:05.032Z,40.35
2023-02-16T07:58:33.269Z,38.70
2023-02-16T08:01:09.392Z,36.40
2023-02-16T08:03:37.704Z,38.42
2023-02-16T08:06:06.488Z,38.70
2023-02-16T08:08:35.497Z,35.47
2023-02-16T08:11:09.623Z,38.05
2023-02-16T08:13:37.772Z,37.75
2023-02-16T08:16:10.663Z,39.42
2023-02-16T08:18:39.053Z,36.65
2023-02-16T08:21:14.469Z,38.83
2023-02-16T08:23:43.678Z,34.17
2023-02-16T08:26:12.206Z,39.42
2023-02-16T08:28:46.191Z,37.10
2023-02-16T08:31:17.161Z,36.72
2023-02-16T08:33:45.536Z,36.25
2023-02-16T08:36:19.064Z,40.80
2023-02-16T08:38:50.325Z,36.28
2023-02-16T08:41:18.828Z,35.15
2023-02-16T08:43:47.047Z,35.95
2023-02-16T08:46:16.836Z,34.97
2023-02-16T08:48:45.465Z,35.47
2023-02-16T08:51:15.089Z,33.60
2023-02-16T08:53:43.361Z,38.53
2023-02-16T08:56:12.340Z,35.80
2023-02-16T08:58:43.506Z,34.30
2023-02-16T09:01:12.054Z,31.77
2023-02-16T09:03:43.165Z,38.85
2023-02-16T09:06:12.314Z,33.42
2023-02-16T09:08:40.574Z,31.52
2023-02-16T09:11:09.787Z,29.77
2023-02-16T09:13:38.665Z,31.35
2023-02-16T09:16:08.137Z,30.65
2023-02-16T09:18:36.954Z,30.63
2023-02-16T09:21:07.547Z,29.08
2023-02-16T09:23:36.088Z,34.38
2023-02-16T09:26:07.204Z,26.90
2023-02-16T09:28:35.441Z,26.92
2023-02-16T09:31:10.489Z,29.83
2023-02-16T09:33:38.870Z,29.98
2023-02-16T09:36:09.570Z,33.75
2023-02-16T09:38:37.877Z,33.95
2023-02-16T09:41:11.646Z,35.97
2023-02-16T09:43:46.480Z,41.53
2023-02-16T09:46:15.460Z,35.88
2023-02-16T09:48:45.608Z,48.47
2023-02-16T09:51:17.224Z,38.70
2023-02-16T09:53:47.124Z,45.25
2023-02-16T09:56:20.263Z,51.15
2023-02-16T09:58:50.316Z,47.65
2023-02-16T10:01:24.531Z,51.83
2023-02-16T10:03:56.894Z,48.35
2023-02-16T10:06:46.605Z,45.53
2023-02-16T10:09:16.520Z,46.80
2023-02-16T10:11:49.064Z,47.45
2023-02-16T10:14:26.066Z,54.58
2023-02-16T10:16:56.526Z,50.03
2023-02-16T10:19:26.457Z,55.40
2023-02-16T10:21:57.353Z,60.22
2023-02-16T10:24:26.021Z,55.38
2023-02-16T10:26:57.169Z,52.03
2023-02-16T10:29:27.073Z,53.60
2023-02-16T10:32:01.713Z,60.80
2023-02-16T10:34:37.855Z,53.88
2023-02-16T10:37:18.287Z,56.63
2023-02-16T10:39:49.425Z,56.55
2023-02-16T10:42:21.439Z,57.67
2023-02-16T10:44:52.281Z,58.95
2023-02-16T10:47:28.091Z,57.25
2023-02-16T10:49:56.728Z,56.75
2023-02-16T10:52:26.276Z,58.67
2023-02-16T10:54:54.556Z,57.90
2023-02-16T10:57:26.838Z,55.55
2023-02-16T10:59:55.165Z,56.63
2023-02-16T11:02:25.821Z,58.55
2023-02-16T11:04:54.711Z,54.97
2023-02-16T11:07:23.428Z,56.33
2023-02-16T11:09:54.968Z,58.35
2023-02-16T11:12:29.555Z,51.88
2023-02-16T11:15:00.663Z,54.97
2023-02-16T11:17:29.110Z,54.33
2023-02-16T11:20:01.727Z,54.58
2023-02-16T11:22:35.209Z,52.53
2023-02-16T11:25:27.005Z,52.38
2023-02-16T11:27:57.084Z,50.67
2023-02-16T11:30:32.810Z,58.88
2023-02-16T11:35:48.689Z,52.15
2023-02-16T11:38:30.196Z,51.30
2023-02-16T11:41:00.079Z,51.45
2023-02-16T11:43:29.671Z,50.80
2023-02-16T11:45:59.283Z,50.22
2023-02-16T11:48:29.480Z,52.75
2023-02-16T11:50:58.926Z,53.75
2023-02-16T11:53:28.253Z,57.55
2023-02-16T11:56:14.643Z,59.58
2023-02-16T11:58:43.054Z,64.05
2023-02-16T12:01:18.810Z,60.42
2023-02-16T12:04:05.093Z,59.03
2023-02-16T12:06:40.414Z,58.70
2023-02-16T12:09:13.298Z,59.70
2023-02-16T12:11:46.898Z,56.78
2023-02-16T12:14:25.174Z,61.20
2023-02-16T12:16:55.993Z,59.10
2023-02-16T12:19:31.842Z,63.42
2023-02-16T12:22:03.632Z,62.10
2023-02-16T12:24:38.825Z,65.45
2023-02-16T12:27:11.808Z,60.80
2023-02-16T12:29:44.966Z,60.78
2023-02-16T12:32:22.259Z,62.05
2023-02-16T12:34:57.065Z,59.72
2023-02-16T12:37:28.625Z,59.90
2023-02-16T12:39:59.905Z,58.47
2023-02-16T12:42:53.421Z,59.25
2023-02-16T12:45:22.566Z,60.15
2023-02-16T12:47:54.214Z,58.08
2023-02-16T12:50:23.243Z,63.75
2023-02-16T12:52:54.154Z,59.42
2023-02-16T12:55:23.280Z,58.13
2023-02-16T12:57:57.131Z,61.00
2023-02-16T13:00:27.236Z,56.92
2023-02-16T13:02:58.092Z,58.40
2023-02-16T13:05:28.484Z,56.08
2023-02-16T13:07:58.264Z,58.00
2023-02-16T13:10:28.641Z,57.05
2023-02-16T13:13:02.048Z,55.25
2023-02-16T13:15:33.101Z,59.03
2023-02-16T13:18:03.978Z,58.70
2023-02-16T13:20:33.755Z,57.42
2023-02-16T13:23:40.208Z,54.97
2023-02-16T13:26:18.132Z,55.17
2023-02-16T13:29:25.345Z,54.00
2023-02-16T13:31:59.959Z,56.97
2023-02-16T13:34:43.811Z,52.95
2023-02-16T13:37:22.022Z,56.75
2023-02-16T13:40:00.583Z,54.63
2023-02-16T13:42:52.158Z,52.97
2023-02-16T13:45:22.636Z,56.47
2023-02-16T13:47:50.948Z,54.90
2023-02-16T13:50:28.209Z,49.53
2023-02-16T13:52:57.713Z,57.35
2023-02-16T13:55:28.648Z,50.00
2023-02-16T13:58:08.240Z,58.08
2023-02-16T14:00:39.307Z,57.25
2023-02-16T14:03:12.444Z,53.67
2023-02-16T14:05:41.868Z,55.53
2023-02-16T14:08:15.021Z,57.83
2023-02-16T14:11:06.149Z,50.75
2023-02-16T14:13:35.584Z,49.83
2023-02-16T14:16:08.911Z,51.63
2023-02-16T14:18:43.161Z,51.60
2023-02-16T14:21:19.216Z,48.67
2023-02-16T14:23:47.403Z,45.88
2023-02-16T14:26:16.169Z,46.22
2023-02-16T14:29:12.859Z,56.30
2023-02-16T14:31:45.804Z,47.03
2023-02-16T14:34:18.233Z,45.20
2023-02-16T14:37:28.009Z,45.35
2023-02-16T14:40:07.828Z,44.65
2023-02-16T14:42:36.735Z,46.45
2023-02-16T14:45:15.613Z,46.90
2023-02-16T14:47:48.610Z,47.42
2023-02-16T14:50:28.646Z,41.08
2023-02-16T14:53:29.198Z,43.85
2023-02-16T14:56:14.821Z,44.00
2023-02-16T14:58:48.450Z,41.55
2023-02-16T15:01:17.983Z,44.20
2023-02-16T15:03:50.412Z,42.13
2023-02-16T15:06:22.272Z,41.75
2023-02-16T15:08:58.318Z,41.80
2023-02-16T15:11:30.458Z,44.00
2023-02-16T15:14:04.306Z,44.95
2023-02-16T15:16:32.851Z,42.17
2023-02-16T15:19:04.650Z,53.92
2023-02-16T15:21:36.848Z,41.15
2023-02-16T15:24:06.119Z,41.70
2023-02-16T15:26:35.742Z,42.72
2023-02-16T15:29:05.604Z,39.47
2023-02-16T15:31:34.983Z,44.30
2023-02-16T15:34:05.910Z,37.95
2023-02-16T15:36:36.056Z,39.13
2023-02-16T15:39:05.884Z,40.80
2023-02-16T15:41:35.171Z,36.92
2023-02-16T15:44:03.949Z,41.22
2023-02-16T15:46:33.839Z,42.78
2023-02-16T15:49:13.934Z,45.22
2023-02-16T15:51:43.274Z,45.38
2023-02-16T15:54:18.002Z,45.75
2023-02-16T15:56:47.340Z,42.45
2023-02-16T15:59:32.920Z,42.03
2023-02-16T16:02:04.126Z,43.97
2023-02-16T16:04:38.821Z,47.10
2023-02-16T16:07:12.138Z,43.65
2023-02-16T16:09:40.377Z,46.42
2023-02-16T16:12:09.553Z,45.80
2023-02-16T16:14:40.635Z,45.03
2023-02-16T16:17:09.079Z,42.95
2023-02-16T16:19:38.986Z,39.85
2023-02-16T16:22:17.584Z,41.47
2023-02-16T16:24:48.712Z,43.05
2023-02-16T16:27:16.949Z,39.92
2023-02-16T16:29:46.535Z,43.25
2023-02-16T16:32:19.681Z,38.05
2023-02-16T16:34:49.375Z,45.42
2023-02-16T16:37:25.520Z,42.67
2023-02-16T16:40:00.925Z,42.92
2023-02-16T16:42:29.253Z,41.55
2023-02-16T16:44:59.720Z,40.63
2023-02-16T16:47:30.392Z,38.05
2023-02-16T16:50:01.040Z,40.42
2023-02-16T16:52:41.679Z,40.45
2023-02-16T16:55:27.327Z,42.67
2023-02-16T16:57:56.225Z,45.58
2023-02-16T17:00:25.139Z,54.85
2023-02-16T17:02:53.308Z,66.25
2023-02-16T17:05:22.921Z,56.22
2023-02-16T17:07:52.034Z,54.47
2023-02-16T17:10:21.178Z,53.20
2023-02-16T17:12:50.027Z,56.88
2023-02-16T17:15:29.031Z,52.63
2023-02-16T17:17:57.217Z,54.35
2023-02-16T17:20:26.784Z,52.45
2023-02-16T17:22:55.039Z,52.35
2023-02-16T17:25:23.323Z,51.63
2023-02-16T17:27:51.678Z,49.65
2023-02-16T17:30:19.932Z,51.63
2023-02-16T17:32:48.320Z,49.17
2023-02-16T17:35:16.657Z,50.05
2023-02-16T17:37:46.383Z,52.17
2023-02-16T17:40:17.473Z,49.80
2023-02-16T17:42:45.724Z,54.30
2023-02-16T17:45:13.900Z,63.63
2023-02-16T17:47:42.440Z,62.15
2023-02-16T17:50:12.780Z,62.80
2023-02-16T17:52:41.121Z,59.00
2023-02-16T17:55:11.011Z,59.13
2023-02-16T17:57:39.638Z,60.40
2023-02-16T18:00:09.503Z,60.97
2023-02-16T18:02:38.296Z,62.67
2023-02-16T18:05:07.022Z,62.83
2023-02-16T18:07:35.313Z,61.63
2023-02-16T18:10:03.526Z,63.80
2023-02-16T18:12:33.196Z,64.00
2023-02-16T18:15:01.513Z,65.93
2023-02-16T18:17:29.778Z,63.58
2023-02-16T18:19:58.015Z,62.95
2023-02-16T18:22:26.212Z,65.22
2023-02-16T18:24:54.491Z,66.85
2023-02-16T18:27:22.576Z,61.47
2023-02-16T18:29:52.160Z,62.50
2023-02-16T18:32:20.295Z,61.13
2023-02-16T18:34:48.398Z,64.07
2023-02-16T18:37:16.613Z,61.35
2023-02-16T18:39:44.922Z,62.72
2023-02-16T18:42:13.463Z,61.65
2023-02-16T18:44:41.815Z,66.38
2023-02-16T18:47:12.023Z,70.43
2023-02-16T18:49:40.483Z,75.07
2023-02-16T18:52:08.812Z,77.30
2023-02-16T18:54:36.927Z,75.82
2023-02-16T18:57:05.274Z,81.50
2023-02-16T18:59:34.372Z,83.75
2023-02-16T19:02:03.021Z,84.90
2023-02-16T19:04:33.250Z,81.78
2023-02-16T19:07:01.736Z,81.03
2023-02-16T19:09:29.932Z,79.25
2023-02-16T19:11:58.177Z,81.72
2023-02-16T19:14:26.469Z,82.95
2023-02-16T19:16:54.684Z,86.97
2023-02-16T19:19:22.861Z,91.35
2023-02-16T19:21:52.483Z,101.07
2023-02-16T19:24:20.763Z,102.57
2023-02-16T19:26:49.003Z,105.45
2023-02-16T19:29:17.583Z,113.68
2023-02-16T19:31:47.651Z,110.38
2023-02-16T19:34:17.124Z,106.13
2023-02-16T19:36:45.284Z,109.60
2023-02-16T19:39:14.926Z,102.35
2023-02-16T19:41:44.226Z,110.07
2023-02-16T19:44:13.994Z,103.13
2023-02-16T19:46:42.750Z,105.25
2023-02-16T19:49:13.180Z,104.72
2023-02-16T19:51:41.453Z,101.88
2023-02-16T19:54:10.011Z,104.32
2023-02-16T19:56:40.700Z,104.22
2023-02-16T19:59:09.931Z,100.18
2023-02-16T20:01:38.249Z,105.38
2023-02-16T20:04:06.544Z,99.90
2023-02-16T20:06:37.268Z,103.20
2023-02-16T20:09:05.720Z,105.18
2023-02-16T20:11:34.002Z,105.13
2023-02-16T20:14:04.132Z,104.28
2023-02-16T20:16:32.739Z,104.03
2023-02-16T20:19:01.191Z,102.95
2023-02-16T20:21:30.080Z,101.57
2023-02-16T20:23:59.470Z,102.45
2023-02-16T20:26:28.729Z,101.93
2023-02-16T20:28:57.400Z,106.55
2023-02-16T20:31:29.149Z,99.20
2023-02-16T20:33:57.469Z,100.10
2023-02-16T20:36:25.577Z,98.18
2023-02-16T20:38:53.828Z,101.10
2023-02-16T20:41:22.094Z,98.78
2023-02-16T20:43:50.569Z,99.13
2023-02-16T20:46:18.907Z,101.05
2023-02-16T20:48:50.179Z,97.15
2023-02-16T20:51:18.353Z,96.88
2023-02-16T20:53:46.608Z,92.32
2023-02-16T20:56:16.235Z,106.60
2023-02-16T20:58:45.172Z,88.43
2023-02-16T21:01:14.294Z,92.95
2023-02-16T21:03:42.599Z,91.07
2023-02-16T21:06:12.231Z,89.75
2023-02-16T21:08:40.450Z,89.35
2023-02-16T21:11:08.633Z,86.43
2023-02-16T21:13:36.972Z,86.78
2023-02-16T21:16:05.804Z,86.95
2023-02-16T21:18:34.200Z,88.93
2023-02-16T21:21:02.842Z,84.05
2023-02-16T21:23:32.549Z,86.35
2023-02-16T21:26:00.945Z,82.55
2023-02-16T21:28:29.265Z,81.05
2023-02-16T21:30:57.694Z,81.90
2023-02-16T21:33:25.939Z,78.47
2023-02-16T21:35:54.192Z,78.63
2023-02-16T21:38:22.395Z,78.35
2023-02-16T21:41:09.557Z,81.50
2023-02-16T21:43:37.800Z,79.63
2023-02-16T21:46:08.758Z,76.10
2023-02-16T21:48:50.184Z,76.30
2023-02-16T21:51:19.029Z,71.22
2023-02-16T21:53:47.222Z,73.30
2023-02-16T21:56:27.836Z,70.95
2023-02-16T21:58:56.244Z,70.53
2023-02-16T22:01:25.071Z,71.18
2023-02-16T22:03:58.600Z,70.05
2023-02-16T22:06:27.958Z,70.72
2023-02-16T22:08:56.158Z,65.78
2023-02-16T22:11:24.639Z,64.72
2023-02-16T22:13:58.139Z,66.13
2023-02-16T22:16:26.636Z,66.82
2023-02-16T22:18:57.816Z,62.78
2023-02-16T22:21:26.251Z,65.60
2023-02-16T22:23:54.496Z,61.85
2023-02-16T22:26:24.472Z,61.42
2023-02-16T22:28:52.709Z,61.25
2023-02-16T22:31:23.240Z,61.83
2023-02-16T22:33:56.202Z,63.70
2023-02-16T22:36:24.553Z,57.70
2023-02-16T22:38:53.074Z,59.35
2023-02-16T22:41:21.409Z,57.85
2023-02-16T22:43:49.687Z,57.60
2023-02-16T22:46:18.147Z,57.58
2023-02-16T22:48:47.902Z,55.67
2023-02-16T22:51:16.378Z,55.78
2023-02-16T22:53:44.646Z,53.95
2023-02-16T22:56:16.726Z,54.92
2023-02-16T22:58:44.927Z,54.05
2023-02-16T23:01:13.933Z,52.42
2023-02-16T23:03:42.929Z,51.90
2023-02-16T23:06:16.148Z,51.20
2023-02-16T23:08:44.539Z,49.50
2023-02-16T23:11:12.827Z,51.35
2023-02-16T23:13:41.060Z,49.03
2023-02-16T23:16:10.406Z,48.65
2023-02-16T23:18:38.625Z,50.78
2023-02-16T23:21:08.479Z,51.22
2023-02-16T23:23:38.188Z,45.13
2023-02-16T23:26:07.103Z,47.60
2023-02-16T23:28:35.556Z,49.13
2023-02-16T23:31:04.018Z,46.63
2023-02-16T23:33:32.320Z,45.67
2023-02-16T23:36:00.693Z,44.78
2023-02-16T23:38:28.794Z,49.85
2023-02-16T23:40:59.081Z,47.97
2023-02-16T23:43:27.445Z,47.70
2023-02-16T23:45:55.802Z,41.72
2023-02-16T23:48:24.158Z,45.22
2023-02-16T23:50:52.579Z,43.97
2023-02-16T23:53:20.949Z,43.22
2023-02-16T23:55:59.357Z,42.55
2023-02-16T23:58:28.570Z,42.28
